ENRGY19 KMRY-KLSV
Flight info
| Callsign | ENRGY19 |
|---|---|
| Flight time | N/A |
| Altitude | 27000 |
| Route | SNS PXN NTELL Q174 SKANN Q13 HOUZZ |
| Aircraft | B350/L-SBGRW/S |
Departure
| Time | 2026-04-30 21:37 |
|---|---|
| Airport | Monterey Regional Airport (KMRY) |
Arrival
| Time | N/A |
|---|---|
| Airport | Nellis Air Force Base (KLSV) |
| Time | Latitude | Longitude | Altitude | Speed | Heading |
|---|---|---|---|---|---|
| 2026-04-30 21:27 | 36.58900 | -121.85551 | 170 ft | 0 kts | 153° |
| 2026-04-30 21:34 | 36.58870 | -121.85531 | 172 ft | 14 kts | 143° |
| 2026-04-30 21:34 | 36.58911 | -121.85457 | 173 ft | 17 kts | 44° |
| 2026-04-30 21:35 | 36.58904 | -121.85297 | 178 ft | 21 kts | 108° |
| 2026-04-30 21:35 | 36.58846 | -121.85113 | 192 ft | 24 kts | 114° |
| 2026-04-30 21:35 | 36.58777 | -121.84909 | 196 ft | 27 kts | 111° |
| 2026-04-30 21:35 | 36.58706 | -121.84705 | 205 ft | 16 kts | 117° |
| 2026-04-30 21:36 | 36.58693 | -121.84612 | 208 ft | 0 kts | 47° |
| 2026-04-30 21:36 | 36.58752 | -121.84593 | 208 ft | 8 kts | 314° |
| 2026-04-30 21:37 | 36.59245 | -121.86105 | 864 ft | 115 kts | 289° |
| 2026-04-30 21:37 | 36.59638 | -121.87041 | 1398 ft | 134 kts | 314° |
| 2026-04-30 21:37 | 36.60490 | -121.87430 | 2057 ft | 134 kts | 4° |
| 2026-04-30 21:37 | 36.61275 | -121.86878 | 2670 ft | 143 kts | 49° |
| 2026-04-30 21:38 | 36.61764 | -121.85637 | 2837 ft | 174 kts | 85° |
| 2026-04-30 21:38 | 36.61740 | -121.84106 | 3288 ft | 179 kts | 82° |
| 2026-04-30 21:38 | 36.62045 | -121.82614 | 3805 ft | 178 kts | 73° |
| 2026-04-30 21:38 | 36.62405 | -121.81140 | 4299 ft | 179 kts | 72° |
| 2026-04-30 21:39 | 36.62780 | -121.79659 | 4805 ft | 180 kts | 73° |
| 2026-04-30 21:39 | 36.63142 | -121.78161 | 5271 ft | 181 kts | 76° |
| 2026-04-30 21:39 | 36.63412 | -121.76624 | 5753 ft | 182 kts | 79° |
| 2026-04-30 21:39 | 36.63678 | -121.75081 | 6233 ft | 183 kts | 77° |
| 2026-04-30 21:40 | 36.63972 | -121.73532 | 6701 ft | 184 kts | 77° |
| 2026-04-30 21:40 | 36.64263 | -121.71952 | 6944 ft | 198 kts | 78° |
| 2026-04-30 21:40 | 36.64571 | -121.70237 | 7265 ft | 202 kts | 78° |
| 2026-04-30 21:40 | 36.64882 | -121.68555 | 7645 ft | 202 kts | 77° |
| 2026-04-30 21:41 | 36.65197 | -121.66844 | 8023 ft | 202 kts | 78° |
| 2026-04-30 21:41 | 36.65507 | -121.65134 | 8407 ft | 203 kts | 78° |
| 2026-04-30 21:41 | 36.65818 | -121.63417 | 8789 ft | 204 kts | 78° |
| 2026-04-30 21:41 | 36.66096 | -121.61679 | 9165 ft | 205 kts | 80° |
| 2026-04-30 21:42 | 36.66349 | -121.59933 | 9554 ft | 205 kts | 80° |
| 2026-04-30 21:42 | 36.66550 | -121.58171 | 9934 ft | 206 kts | 86° |
| 2026-04-30 21:42 | 36.66635 | -121.56380 | 10258 ft | 208 kts | 86° |
| 2026-04-30 21:42 | 36.66754 | -121.54575 | 10571 ft | 210 kts | 84° |
| 2026-04-30 21:43 | 36.66883 | -121.52783 | 11044 ft | 204 kts | 84° |
| 2026-04-30 21:43 | 36.66994 | -121.51024 | 11447 ft | 204 kts | 84° |
| 2026-04-30 21:43 | 36.67106 | -121.49255 | 11809 ft | 206 kts | 83° |
| 2026-04-30 21:43 | 36.67226 | -121.47472 | 12176 ft | 208 kts | 82° |
| 2026-04-30 21:44 | 36.67342 | -121.45670 | 12559 ft | 209 kts | 82° |
| 2026-04-30 21:44 | 36.67459 | -121.43853 | 12919 ft | 212 kts | 83° |
| 2026-04-30 21:44 | 36.67578 | -121.42014 | 13287 ft | 214 kts | 82° |
| 2026-04-30 21:44 | 36.67699 | -121.40159 | 13682 ft | 215 kts | 82° |
| 2026-04-30 21:45 | 36.67819 | -121.38292 | 14035 ft | 217 kts | 82° |
| 2026-04-30 21:45 | 36.67938 | -121.36435 | 14367 ft | 218 kts | 82° |
| 2026-04-30 21:45 | 36.68058 | -121.34550 | 14730 ft | 219 kts | 82° |
| 2026-04-30 21:45 | 36.68181 | -121.32654 | 15059 ft | 220 kts | 82° |
| 2026-04-30 21:46 | 36.68301 | -121.30750 | 15411 ft | 221 kts | 82° |
| 2026-04-30 21:46 | 36.68421 | -121.28837 | 15750 ft | 222 kts | 81° |
| 2026-04-30 21:46 | 36.68545 | -121.26914 | 16091 ft | 223 kts | 81° |
| 2026-04-30 21:46 | 36.68667 | -121.24983 | 16433 ft | 224 kts | 82° |
| 2026-04-30 21:47 | 36.68788 | -121.23042 | 16774 ft | 225 kts | 81° |
| 2026-04-30 21:47 | 36.68915 | -121.21054 | 16888 ft | 237 kts | 81° |
| 2026-04-30 21:47 | 36.69044 | -121.18987 | 16968 ft | 246 kts | 82° |
| 2026-04-30 21:47 | 36.69174 | -121.16852 | 17195 ft | 247 kts | 82° |
| 2026-04-30 21:48 | 36.69310 | -121.14712 | 17434 ft | 248 kts | 81° |
| 2026-04-30 21:48 | 36.69443 | -121.12569 | 17674 ft | 249 kts | 82° |
| 2026-04-30 21:48 | 36.69576 | -121.10418 | 17907 ft | 250 kts | 81° |
| 2026-04-30 21:48 | 36.69712 | -121.08257 | 18135 ft | 250 kts | 81° |
| 2026-04-30 21:49 | 36.69842 | -121.06095 | 18349 ft | 251 kts | 81° |
| 2026-04-30 21:49 | 36.69975 | -121.03923 | 18537 ft | 252 kts | 81° |
| 2026-04-30 21:49 | 36.70111 | -121.01739 | 18724 ft | 253 kts | 81° |
| 2026-04-30 21:49 | 36.70245 | -120.99544 | 18910 ft | 254 kts | 81° |
| 2026-04-30 21:50 | 36.70378 | -120.97343 | 19102 ft | 255 kts | 81° |
| 2026-04-30 21:50 | 36.70513 | -120.95132 | 19277 ft | 257 kts | 81° |
| 2026-04-30 21:50 | 36.70649 | -120.92903 | 19409 ft | 258 kts | 82° |
| 2026-04-30 21:50 | 36.70776 | -120.90698 | 19596 ft | 258 kts | 81° |
| 2026-04-30 21:51 | 36.70916 | -120.88466 | 19784 ft | 259 kts | 81° |
| 2026-04-30 21:51 | 36.71049 | -120.86221 | 19964 ft | 260 kts | 81° |
| 2026-04-30 21:51 | 36.71183 | -120.83967 | 20131 ft | 261 kts | 81° |
| 2026-04-30 21:51 | 36.71321 | -120.81706 | 20322 ft | 262 kts | 80° |
| 2026-04-30 21:52 | 36.71533 | -120.79448 | 20507 ft | 262 kts | 77° |
| 2026-04-30 21:52 | 36.71803 | -120.77193 | 20693 ft | 263 kts | 76° |
| 2026-04-30 21:52 | 36.72131 | -120.74945 | 20897 ft | 262 kts | 71° |
| 2026-04-30 21:52 | 36.72636 | -120.72758 | 21068 ft | 263 kts | 69° |
| 2026-04-30 21:53 | 36.73091 | -120.70573 | 21257 ft | 264 kts | 71° |
| 2026-04-30 21:53 | 36.73547 | -120.68354 | 21436 ft | 265 kts | 70° |
| 2026-04-30 21:53 | 36.74026 | -120.66132 | 21611 ft | 266 kts | 70° |
| 2026-04-30 21:53 | 36.74490 | -120.63902 | 21781 ft | 267 kts | 70° |
| 2026-04-30 21:54 | 36.74960 | -120.61656 | 21961 ft | 268 kts | 70° |
| 2026-04-30 21:54 | 36.75435 | -120.59408 | 22125 ft | 269 kts | 70° |
| 2026-04-30 21:54 | 36.75907 | -120.57146 | 22293 ft | 270 kts | 70° |
| 2026-04-30 21:54 | 36.76381 | -120.54880 | 22452 ft | 270 kts | 70° |
| 2026-04-30 21:55 | 36.76857 | -120.52607 | 22612 ft | 271 kts | 70° |
| 2026-04-30 21:55 | 36.77334 | -120.50325 | 22766 ft | 272 kts | 70° |
| 2026-04-30 21:55 | 36.77811 | -120.48035 | 22925 ft | 273 kts | 70° |
| 2026-04-30 21:55 | 36.78290 | -120.45740 | 23077 ft | 274 kts | 70° |
| 2026-04-30 21:56 | 36.78769 | -120.43438 | 23224 ft | 275 kts | 70° |
| 2026-04-30 21:56 | 36.79252 | -120.41121 | 23387 ft | 276 kts | 70° |
| 2026-04-30 21:56 | 36.79571 | -120.39584 | 23484 ft | 276 kts | 70° |
| 2026-04-30 21:56 | 36.80211 | -120.36503 | 23654 ft | 277 kts | 70° |
| 2026-04-30 21:57 | 36.80696 | -120.34163 | 23772 ft | 278 kts | 70° |
| 2026-04-30 21:57 | 36.81017 | -120.32614 | 23853 ft | 279 kts | 70° |
| 2026-04-30 21:57 | 36.81505 | -120.30263 | 23962 ft | 280 kts | 70° |
| 2026-04-30 21:57 | 36.81991 | -120.27906 | 24079 ft | 280 kts | 70° |
| 2026-04-30 21:58 | 36.82480 | -120.25544 | 24184 ft | 281 kts | 70° |
| 2026-04-30 21:58 | 36.82967 | -120.23179 | 24286 ft | 282 kts | 70° |
| 2026-04-30 21:58 | 36.83456 | -120.20809 | 24377 ft | 282 kts | 70° |
| 2026-04-30 21:58 | 36.83945 | -120.18433 | 24476 ft | 283 kts | 70° |
| 2026-04-30 21:59 | 36.84436 | -120.16053 | 24576 ft | 284 kts | 70° |
| 2026-04-30 21:59 | 36.84926 | -120.13662 | 24662 ft | 284 kts | 70° |
| 2026-04-30 21:59 | 36.85417 | -120.11268 | 24758 ft | 285 kts | 70° |
| 2026-04-30 22:00 | 36.86396 | -120.06489 | 24941 ft | 286 kts | 70° |
| 2026-04-30 22:00 | 36.87372 | -120.01717 | 25348 ft | 278 kts | 70° |
| 2026-04-30 22:00 | 36.87850 | -119.99384 | 25501 ft | 278 kts | 70° |
| 2026-04-30 22:01 | 36.88327 | -119.97036 | 25640 ft | 278 kts | 70° |
| 2026-04-30 22:01 | 36.88806 | -119.94683 | 25763 ft | 279 kts | 70° |
| 2026-04-30 22:01 | 36.89290 | -119.92365 | 25881 ft | 279 kts | 69° |
| 2026-04-30 22:01 | 36.89830 | -119.90024 | 26010 ft | 280 kts | 68° |
| 2026-04-30 22:02 | 36.90395 | -119.87698 | 26193 ft | 280 kts | 66° |
| 2026-04-30 22:02 | 36.91109 | -119.85449 | 26341 ft | 278 kts | 59° |
| 2026-04-30 22:02 | 36.91870 | -119.83222 | 26490 ft | 280 kts | 63° |
| 2026-04-30 22:02 | 36.92589 | -119.80956 | 26650 ft | 281 kts | 62° |
| 2026-04-30 22:03 | 36.93338 | -119.78707 | 26821 ft | 281 kts | 62° |
| 2026-04-30 22:03 | 36.94083 | -119.76432 | 26889 ft | 285 kts | 62° |
| 2026-04-30 22:03 | 36.94833 | -119.74124 | 26925 ft | 289 kts | 62° |
| 2026-04-30 22:03 | 36.95600 | -119.71787 | 26942 ft | 293 kts | 62° |
| 2026-04-30 22:04 | 36.96374 | -119.69414 | 26947 ft | 296 kts | 62° |
| 2026-04-30 22:04 | 36.97156 | -119.67019 | 26951 ft | 299 kts | 62° |
| 2026-04-30 22:04 | 36.98736 | -119.62173 | 26952 ft | 303 kts | 63° |
| 2026-04-30 22:05 | 36.99534 | -119.59725 | 26945 ft | 304 kts | 62° |
| 2026-04-30 22:05 | 37.00324 | -119.57300 | 26959 ft | 305 kts | 63° |
| 2026-04-30 22:05 | 37.01127 | -119.54830 | 26957 ft | 307 kts | 63° |
| 2026-04-30 22:05 | 37.01930 | -119.52355 | 26954 ft | 307 kts | 63° |
| 2026-04-30 22:06 | 37.02735 | -119.49873 | 26957 ft | 308 kts | 62° |
| 2026-04-30 22:06 | 37.04352 | -119.44891 | 26963 ft | 309 kts | 63° |
| 2026-04-30 22:06 | 37.05161 | -119.42391 | 26964 ft | 309 kts | 63° |
| 2026-04-30 22:07 | 37.05960 | -119.39922 | 26965 ft | 310 kts | 63° |
| 2026-04-30 22:07 | 37.06779 | -119.37387 | 26971 ft | 310 kts | 63° |
| 2026-04-30 22:07 | 37.07580 | -119.34909 | 26970 ft | 311 kts | 63° |
| 2026-04-30 22:07 | 37.08389 | -119.32399 | 26975 ft | 311 kts | 63° |
| 2026-04-30 22:08 | 37.09199 | -119.29885 | 26970 ft | 311 kts | 63° |
| 2026-04-30 22:08 | 37.10011 | -119.27371 | 26975 ft | 311 kts | 63° |
| 2026-04-30 22:08 | 37.10818 | -119.24859 | 26974 ft | 311 kts | 63° |
| 2026-04-30 22:08 | 37.11627 | -119.22344 | 26979 ft | 311 kts | 63° |
| 2026-04-30 22:09 | 37.12434 | -119.19832 | 26983 ft | 311 kts | 63° |
| 2026-04-30 22:09 | 37.13240 | -119.17318 | 26977 ft | 311 kts | 63° |
| 2026-04-30 22:09 | 37.14050 | -119.14797 | 26972 ft | 311 kts | 63° |
| 2026-04-30 22:09 | 37.14856 | -119.12280 | 26981 ft | 311 kts | 63° |
| 2026-04-30 22:10 | 37.15662 | -119.09766 | 26975 ft | 310 kts | 63° |
| 2026-04-30 22:10 | 37.16466 | -119.07246 | 26982 ft | 310 kts | 63° |
| 2026-04-30 22:10 | 37.17259 | -119.04766 | 26987 ft | 310 kts | 63° |
| 2026-04-30 22:10 | 37.18064 | -119.02248 | 26982 ft | 310 kts | 63° |
| 2026-04-30 22:11 | 37.19668 | -118.97216 | 26981 ft | 311 kts | 63° |
| 2026-04-30 22:11 | 37.20469 | -118.94701 | 26987 ft | 311 kts | 63° |
| 2026-04-30 22:11 | 37.21272 | -118.92178 | 26994 ft | 311 kts | 63° |
| 2026-04-30 22:12 | 37.22073 | -118.89655 | 26986 ft | 312 kts | 63° |
| 2026-04-30 22:12 | 37.22877 | -118.87129 | 26984 ft | 312 kts | 63° |
| 2026-04-30 22:12 | 37.23680 | -118.84596 | 26958 ft | 311 kts | 63° |
| 2026-04-30 22:12 | 37.24478 | -118.82080 | 26952 ft | 309 kts | 62° |
| 2026-04-30 22:13 | 37.25271 | -118.79581 | 26993 ft | 308 kts | 63° |
| 2026-04-30 22:13 | 37.26059 | -118.77071 | 26996 ft | 310 kts | 64° |
| 2026-04-30 22:13 | 37.26692 | -118.74458 | 26981 ft | 314 kts | 70° |
| 2026-04-30 22:13 | 37.27181 | -118.71814 | 26980 ft | 315 kts | 72° |
| 2026-04-30 22:14 | 37.27629 | -118.69118 | 26982 ft | 316 kts | 73° |
| 2026-04-30 22:14 | 37.28055 | -118.66417 | 26982 ft | 316 kts | 73° |
| 2026-04-30 22:14 | 37.28344 | -118.63669 | 26990 ft | 319 kts | 81° |
| 2026-04-30 22:14 | 37.28508 | -118.60891 | 26985 ft | 318 kts | 79° |
| 2026-04-30 22:15 | 37.28752 | -118.58130 | 26997 ft | 318 kts | 79° |
| 2026-04-30 22:15 | 37.28950 | -118.55359 | 27000 ft | 319 kts | 79° |
| 2026-04-30 22:15 | 37.29166 | -118.52585 | 27001 ft | 319 kts | 79° |
| 2026-04-30 22:15 | 37.29381 | -118.49807 | 27009 ft | 319 kts | 79° |
| 2026-04-30 22:16 | 37.29591 | -118.47026 | 27014 ft | 319 kts | 79° |
| 2026-04-30 22:16 | 37.29803 | -118.44250 | 27016 ft | 319 kts | 79° |
| 2026-04-30 22:17 | 37.30430 | -118.35941 | 27015 ft | 318 kts | 79° |
| 2026-04-30 22:17 | 37.30633 | -118.33215 | 27017 ft | 317 kts | 79° |
| 2026-04-30 22:17 | 37.31045 | -118.27694 | 27023 ft | 317 kts | 79° |
| 2026-04-30 22:18 | 37.31250 | -118.24936 | 27017 ft | 318 kts | 79° |
| 2026-04-30 22:18 | 37.31659 | -118.19402 | 27000 ft | 318 kts | 79° |
| 2026-04-30 22:19 | 37.32065 | -118.13872 | 26973 ft | 317 kts | 79° |
| 2026-04-30 22:19 | 37.32269 | -118.11111 | 26959 ft | 316 kts | 79° |
| 2026-04-30 22:19 | 37.32667 | -118.05612 | 26962 ft | 316 kts | 79° |
| 2026-04-30 22:20 | 37.32867 | -118.02850 | 26957 ft | 316 kts | 79° |
| 2026-04-30 22:20 | 37.33261 | -117.97384 | 26952 ft | 317 kts | 79° |
| 2026-04-30 22:20 | 37.33458 | -117.94614 | 26936 ft | 317 kts | 79° |
| 2026-04-30 22:21 | 37.33657 | -117.91858 | 26930 ft | 317 kts | 79° |
| 2026-04-30 22:21 | 37.33850 | -117.89095 | 26935 ft | 316 kts | 79° |
| 2026-04-30 22:21 | 37.34048 | -117.86338 | 26936 ft | 316 kts | 79° |
| 2026-04-30 22:21 | 37.34240 | -117.83612 | 26939 ft | 317 kts | 79° |
| 2026-04-30 22:22 | 37.34434 | -117.80852 | 26941 ft | 317 kts | 79° |
| 2026-04-30 22:22 | 37.34629 | -117.78092 | 26943 ft | 317 kts | 79° |
| 2026-04-30 22:22 | 37.34822 | -117.75326 | 26938 ft | 318 kts | 79° |
| 2026-04-30 22:22 | 37.35015 | -117.72559 | 26938 ft | 318 kts | 79° |
| 2026-04-30 22:23 | 37.35208 | -117.69793 | 26948 ft | 318 kts | 79° |
| 2026-04-30 22:23 | 37.35398 | -117.67022 | 26943 ft | 318 kts | 79° |
| 2026-04-30 22:23 | 37.35591 | -117.64249 | 26940 ft | 318 kts | 79° |
| 2026-04-30 22:23 | 37.35782 | -117.61477 | 26942 ft | 318 kts | 79° |
| 2026-04-30 22:24 | 37.35972 | -117.58705 | 26927 ft | 317 kts | 79° |
| 2026-04-30 22:24 | 37.36159 | -117.55945 | 26949 ft | 317 kts | 79° |
| 2026-04-30 22:24 | 37.36349 | -117.53180 | 26950 ft | 317 kts | 79° |
| 2026-04-30 22:24 | 37.36533 | -117.50443 | 26947 ft | 318 kts | 79° |
| 2026-04-30 22:25 | 37.36722 | -117.47676 | 26950 ft | 318 kts | 79° |
| 2026-04-30 22:25 | 37.36907 | -117.44909 | 26949 ft | 318 kts | 79° |
| 2026-04-30 22:25 | 37.37093 | -117.42139 | 26952 ft | 318 kts | 79° |
| 2026-04-30 22:25 | 37.37279 | -117.39369 | 26953 ft | 318 kts | 79° |
| 2026-04-30 22:26 | 37.37649 | -117.33806 | 26953 ft | 319 kts | 79° |
| 2026-04-30 22:26 | 37.37791 | -117.31014 | 26956 ft | 322 kts | 86° |
| 2026-04-30 22:26 | 37.37499 | -117.28190 | 26956 ft | 329 kts | 100° |
| 2026-04-30 22:27 | 37.36692 | -117.25480 | 26951 ft | 334 kts | 115° |
| 2026-04-30 22:27 | 37.35435 | -117.23064 | 26950 ft | 337 kts | 129° |
| 2026-04-30 22:27 | 37.31783 | -117.19440 | 26947 ft | 336 kts | 153° |
| 2026-04-30 22:28 | 37.27682 | -117.16610 | 26935 ft | 336 kts | 152° |
| 2026-04-30 22:28 | 37.25710 | -117.15036 | 26946 ft | 336 kts | 145° |
| 2026-04-30 22:29 | 37.19907 | -117.10090 | 26936 ft | 337 kts | 147° |
| 2026-04-30 22:29 | 37.17957 | -117.08458 | 26930 ft | 337 kts | 147° |
| 2026-04-30 22:30 | 37.10181 | -117.01906 | 26919 ft | 337 kts | 147° |
| 2026-04-30 22:31 | 37.04359 | -116.97016 | 26911 ft | 337 kts | 147° |
| 2026-04-30 22:32 | 36.98526 | -116.92123 | 26902 ft | 336 kts | 147° |
| 2026-04-30 22:32 | 36.94633 | -116.88863 | 26902 ft | 336 kts | 147° |
| 2026-04-30 22:33 | 36.88793 | -116.83981 | 26887 ft | 336 kts | 147° |
| 2026-04-30 22:33 | 36.84912 | -116.80740 | 26883 ft | 335 kts | 147° |
| 2026-04-30 22:34 | 36.79094 | -116.75891 | 26873 ft | 335 kts | 147° |
| 2026-04-30 22:35 | 36.75234 | -116.72678 | 26868 ft | 335 kts | 147° |
| 2026-04-30 22:36 | 36.67488 | -116.66243 | 26859 ft | 334 kts | 148° |
| 2026-04-30 22:36 | 36.65551 | -116.64637 | 26859 ft | 334 kts | 148° |
| 2026-04-30 22:37 | 36.60209 | -116.59140 | 26855 ft | 334 kts | 123° |
| 2026-04-30 22:37 | 36.59105 | -116.56605 | 26853 ft | 332 kts | 109° |
| 2026-04-30 22:37 | 36.58123 | -116.51055 | 26853 ft | 328 kts | 95° |
| 2026-04-30 22:38 | 36.57427 | -116.45441 | 26853 ft | 329 kts | 96° |
| 2026-04-30 22:38 | 36.56593 | -116.39849 | 26853 ft | 329 kts | 98° |
| 2026-04-30 22:39 | 36.56143 | -116.37056 | 26853 ft | 330 kts | 101° |
| 2026-04-30 22:39 | 36.54100 | -116.28718 | 26400 ft | 343 kts | 105° |
| 2026-04-30 22:40 | 36.52045 | -116.20130 | 25958 ft | 347 kts | 105° |
| 2026-04-30 22:41 | 36.49957 | -116.11366 | 25219 ft | 357 kts | 105° |
| 2026-04-30 22:41 | 36.48534 | -116.05407 | 24644 ft | 363 kts | 106° |
| 2026-04-30 22:42 | 36.45646 | -115.93355 | 23566 ft | 366 kts | 107° |
| 2026-04-30 22:43 | 36.44184 | -115.87295 | 22957 ft | 366 kts | 107° |
| 2026-04-30 22:43 | 36.42976 | -115.82284 | 22443 ft | 362 kts | 107° |
| 2026-04-30 22:44 | 36.41529 | -115.76322 | 21634 ft | 356 kts | 107° |
| 2026-04-30 22:45 | 36.38739 | -115.64829 | 19601 ft | 332 kts | 107° |
| 2026-04-30 22:45 | 36.37456 | -115.59524 | 18419 ft | 314 kts | 107° |
| 2026-04-30 22:46 | 36.36186 | -115.54329 | 17230 ft | 317 kts | 107° |
| 2026-04-30 22:47 | 36.33823 | -115.44679 | 14471 ft | 269 kts | 107° |
| 2026-04-30 22:47 | 36.32762 | -115.40361 | 12821 ft | 258 kts | 108° |
| 2026-04-30 22:48 | 36.31720 | -115.36122 | 11148 ft | 258 kts | 107° |
| 2026-04-30 22:49 | 36.30097 | -115.29552 | 9059 ft | 275 kts | 107° |
| 2026-04-30 22:49 | 36.28478 | -115.22956 | 7400 ft | 247 kts | 107° |
| 2026-04-30 22:50 | 36.26621 | -115.15494 | 7071 ft | 219 kts | 106° |
| 2026-04-30 22:51 | 36.25730 | -115.11947 | 6678 ft | 210 kts | 106° |
| 2026-04-30 22:51 | 36.25596 | -115.08593 | 6137 ft | 182 kts | 77° |
| 2026-04-30 22:52 | 36.25997 | -115.07128 | 5767 ft | 177 kts | 70° |
| 2026-04-30 22:52 | 36.26838 | -115.04305 | 4966 ft | 165 kts | 73° |
| 2026-04-30 22:53 | 36.27218 | -115.01689 | 4290 ft | 137 kts | 101° |
| 2026-04-30 22:53 | 36.25800 | -115.01443 | 2843 ft | 158 kts | 239° |
| 2026-04-30 22:53 | 36.24922 | -115.02308 | 1984 ft | 157 kts | 214° |
| 2026-04-30 22:54 | 36.23572 | -115.03702 | 1857 ft | 98 kts | 229° |